Time;durP1;ratioP1;P1;durP2;ratioP2;P2;SDS_P1;SDS_P2;PMS_P1;PMS_P2;Temp;Humidity;BMP_temperature;BMP_pressure;BME280_temperature;BME280_humidity;BME280_pressure;Samples;Min_cycle;Max_cycle;Signal;HPM_P1;HPM_P2
2021/07/18 00:01:31;;;;;;;13.20;9.80;;;;;;;18.81;98.60;97181.53;5106165;28;20217;-66
2021/07/18 00:03:56;;;;;;;13.20;10.05;;;;;;;18.71;99.51;97178.09;5105156;28;20180;-62
2021/07/18 00:06:22;;;;;;;11.80;9.80;;;;;;;18.65;99.26;97178.09;5100335;28;20732;-60
2021/07/18 00:08:47;;;;;;;12.10;9.88;;;;;;;18.75;98.41;97173.81;5099940;28;20179;-60
2021/07/18 00:11:12;;;;;;;12.32;9.30;;;;;;;18.61;98.39;97174.38;5109172;28;20271;-60
2021/07/18 00:13:38;;;;;;;14.50;8.98;;;;;;;18.57;98.74;97172.53;5096925;28;20223;-61
2021/07/18 00:16:04;;;;;;;13.10;9.32;;;;;;;18.75;97.20;97173.81;5107983;28;20187;-60
2021/07/18 00:18:29;;;;;;;15.60;9.50;;;;;;;18.74;96.73;97173.03;5100186;28;20252;-60
2021/07/18 00:20:54;;;;;;;11.18;9.05;;;;;;;18.60;97.74;97169.34;5093073;28;20199;-60
2021/07/18 00:23:20;;;;;;;10.82;8.45;;;;;;;18.61;97.69;97178.91;5100724;28;20180;-60
2021/07/18 00:25:45;;;;;;;11.98;9.27;;;;;;;18.52;97.88;97175.97;5106031;28;20648;-61
2021/07/18 00:28:11;;;;;;;11.18;9.10;;;;;;;18.53;97.68;97174.09;5094112;28;20635;-60
2021/07/18 00:30:36;;;;;;;15.00;9.40;;;;;;;18.55;97.78;97174.66;5088863;28;20188;-60
2021/07/18 00:33:04;;;;;;;12.75;8.90;;;;;;;18.38;98.52;97174.91;5093975;28;20185;-60
2021/07/18 00:35:29;;;;;;;14.10;8.73;;;;;;;18.61;96.85;97178.91;5091012;28;20183;-61
2021/07/18 00:37:54;;;;;;;12.95;8.50;;;;;;;18.50;97.07;97174.66;5093895;28;20180;-60
2021/07/18 00:40:20;;;;;;;13.43;8.73;;;;;;;18.31;97.77;97168.28;5100463;28;20247;-61
2021/07/18 00:42:45;;;;;;;15.52;8.68;;;;;;;18.31;97.90;97177.03;5104978;28;20175;-61
2021/07/18 00:45:12;;;;;;;9.65;8.30;;;;;;;18.38;97.33;97166.16;5094352;28;20221;-60
2021/07/18 00:47:39;;;;;;;12.13;8.25;;;;;;;18.38;97.05;97163.50;5105600;28;20197;-60
2021/07/18 00:50:07;;;;;;;9.23;8.00;;;;;;;18.33;96.83;97164.31;5104416;28;20183;-60
2021/07/18 00:52:33;;;;;;;11.45;8.13;;;;;;;18.29;96.70;97160.56;5102282;28;20647;-65
2021/07/18 00:54:58;;;;;;;10.83;7.83;;;;;;;18.21;97.18;97163.78;5111203;28;20187;-61
2021/07/18 00:57:24;;;;;;;12.38;8.20;;;;;;;18.17;97.50;97168.00;5098647;28;20644;-60
2021/07/18 00:59:50;;;;;;;10.43;7.68;;;;;;;18.01;98.18;97159.25;5105927;28;20219;-59
2021/07/18 01:02:16;;;;;;;15.63;8.93;;;;;;;18.03;98.11;97156.34;5104978;28;20207;-59
2021/07/18 01:04:42;;;;;;;11.43;8.60;;;;;;;18.11;97.97;97166.44;5104887;28;20199;-59
2021/07/18 01:07:07;;;;;;;10.00;8.70;;;;;;;18.16;97.35;97169.09;5096207;28;20176;-60
2021/07/18 01:09:36;;;;;;;14.98;9.02;;;;;;;18.15;97.25;97162.97;5095446;28;20656;-65
2021/07/18 01:12:03;;;;;;;12.67;8.63;;;;;;;18.17;96.70;97168.00;5096122;28;20254;-62
2021/07/18 01:14:29;;;;;;;10.63;8.47;;;;;;;17.98;97.42;97157.13;5096395;28;20195;-60
2021/07/18 01:16:56;;;;;;;10.37;8.40;;;;;;;17.93;97.37;97157.13;5096193;28;20188;-60
2021/07/18 01:19:22;;;;;;;9.73;8.00;;;;;;;17.84;97.77;97156.03;5109892;28;20208;-60
2021/07/18 01:21:56;;;;;;;11.70;8.43;;;;;;;17.77;97.44;97155.53;5107932;28;20198;-60
2021/07/18 01:24:22;;;;;;;10.27;7.87;;;;;;;17.78;97.42;97146.47;5112135;28;20179;-62
2021/07/18 01:26:47;;;;;;;9.90;7.10;;;;;;;17.73;97.53;97147.28;5105573;28;20237;-60
2021/07/18 01:29:13;;;;;;;7.73;6.60;;;;;;;17.64;97.48;97154.16;5098061;28;20217;-60
2021/07/18 01:31:38;;;;;;;8.60;7.27;;;;;;;17.63;96.70;97152.56;5106670;28;20759;-61
2021/07/18 01:34:04;;;;;;;8.43;7.43;;;;;;;17.60;96.60;97149.66;5094121;28;20580;-59
2021/07/18 01:36:30;;;;;;;8.63;6.40;;;;;;;17.62;95.52;97150.16;5102025;28;20208;-59
2021/07/18 01:38:55;;;;;;;12.97;6.60;;;;;;;17.56;95.70;97145.88;5105525;28;20224;-60
2021/07/18 01:41:20;;;;;;;7.50;6.30;;;;;;;17.60;94.70;97152.31;5099515;28;20189;-60
2021/07/18 01:43:46;;;;;;;10.33;6.63;;;;;;;17.38;95.59;97149.84;5098712;28;20180;-60
2021/07/18 01:46:11;;;;;;;7.80;6.00;;;;;;;17.43;95.27;97149.84;5103933;28;20183;-59
2021/07/18 01:48:37;;;;;;;11.30;6.13;;;;;;;17.53;93.76;97155.16;5108253;28;20204;-65
2021/07/18 01:51:02;;;;;;;7.73;5.70;;;;;;;17.47;94.08;97153.56;5092402;28;20242;-59
2021/07/18 01:53:27;;;;;;;6.67;5.97;;;;;;;17.33;94.95;97149.81;5107508;28;20179;-60
2021/07/18 01:55:54;;;;;;;7.43;5.90;;;;;;;17.31;95.13;97146.63;5100169;28;20188;-60
2021/07/18 01:58:28;;;;;;;10.87;7.03;;;;;;;17.35;94.55;97147.69;5103687;28;20180;-60
2021/07/18 02:00:54;;;;;;;6.60;5.33;;;;;;;17.30;94.19;97145.03;5102853;28;20752;-60
2021/07/18 02:03:19;;;;;;;8.27;5.80;;;;;;;17.33;93.90;97145.28;5101601;28;20204;-60
2021/07/18 02:05:44;;;;;;;6.13;5.50;;;;;;;17.14;94.35;97146.84;5100654;28;20271;-62
2021/07/18 02:08:10;;;;;;;7.70;5.77;;;;;;;17.20;93.63;97145.00;5093906;28;20240;-60
2021/07/18 02:10:35;;;;;;;8.47;6.20;;;;;;;17.20;93.10;97145.78;5098937;28;20263;-65
2021/07/18 02:13:01;;;;;;;7.77;5.27;;;;;;;17.29;92.29;97146.06;5113557;28;20175;-60
2021/07/18 02:15:26;;;;;;;7.43;5.07;;;;;;;17.41;90.91;97149.31;5095812;28;20230;-60
2021/07/18 02:17:51;;;;;;;6.93;5.33;;;;;;;17.41;90.24;97149.31;5113008;28;20199;-60
2021/07/18 02:20:20;;;;;;;6.53;5.20;;;;;;;17.44;89.66;97148.78;5097024;28;20208;-61
2021/07/18 02:22:49;;;;;;;6.73;5.37;;;;;;;17.20;90.60;97155.59;5106842;28;20172;-61
2021/07/18 02:25:17;;;;;;;5.50;4.77;;;;;;;17.08;90.60;97155.81;5094022;28;20191;-61
2021/07/18 02:27:43;;;;;;;9.63;5.50;;;;;;;17.17;90.14;97158.75;5093441;28;20180;-61
2021/07/18 02:30:11;;;;;;;5.37;4.80;;;;;;;17.18;90.11;97157.69;5109987;28;20283;-61
2021/07/18 02:32:36;;;;;;;4.87;4.33;;;;;;;16.85;91.55;97153.56;5103499;28;20178;-66
2021/07/18 02:35:05;;;;;;;7.03;4.57;;;;;;;16.86;91.10;97148.03;5105944;28;20268;-61
2021/07/18 02:37:30;;;;;;;7.97;4.70;;;;;;;16.78;91.18;97153.00;5100944;28;20177;-60
2021/07/18 02:39:55;;;;;;;5.17;4.47;;;;;;;16.87;90.80;97146.97;5082338;28;20346;-60
2021/07/18 02:42:21;;;;;;;5.77;4.50;;;;;;;16.91;90.12;97157.84;5055106;28;20185;-61
2021/07/18 02:44:46;;;;;;;4.97;4.37;;;;;;;16.95;89.94;97161.56;5064389;28;20190;-60
2021/07/18 02:47:12;;;;;;;6.50;4.70;;;;;;;16.94;89.82;97166.06;5061976;28;20281;-60
2021/07/18 02:49:37;;;;;;;7.73;5.17;;;;;;;17.07;89.37;97164.81;5058902;28;20182;-66
2021/07/18 02:52:03;;;;;;;8.13;4.63;;;;;;;17.09;88.92;97170.66;5054428;28;20197;-61
2021/07/18 02:54:29;;;;;;;4.63;4.20;;;;;;;17.10;88.57;97168.81;5064623;28;20216;-60
2021/07/18 02:56:54;;;;;;;4.97;4.43;;;;;;;17.09;88.33;97168.00;5064044;28;20639;-61
2021/07/18 02:59:20;;;;;;;4.87;4.37;;;;;;;17.04;87.73;97168.78;5066710;28;20569;-60
2021/07/18 03:01:45;;;;;;;6.13;4.13;;;;;;;16.89;87.70;97163.38;5062153;28;20182;-60
2021/07/18 03:04:10;;;;;;;6.73;4.40;;;;;;;16.92;87.60;97168.19;5070514;28;20227;-60
2021/07/18 03:06:36;;;;;;;6.47;4.37;;;;;;;16.86;87.15;97166.56;5057764;28;20635;-60
2021/07/18 03:09:01;;;;;;;6.10;3.53;;;;;;;16.71;87.50;97169.13;5061750;28;20201;-60
2021/07/18 03:11:27;;;;;;;6.33;4.03;;;;;;;16.75;86.97;97164.91;5061950;28;20189;-61
2021/07/18 03:13:52;;;;;;;5.40;4.07;;;;;;;16.75;87.31;97164.91;5055893;28;20726;-60
2021/07/18 03:16:17;;;;;;;5.23;3.90;;;;;;;16.63;87.24;97166.94;5068726;28;20178;-60
2021/07/18 03:18:43;;;;;;;6.23;3.77;;;;;;;16.56;86.96;97163.69;5059951;28;20611;-60
2021/07/18 03:21:08;;;;;;;4.60;3.77;;;;;;;16.71;86.83;97171.78;5059343;28;20196;-60
2021/07/18 03:23:34;;;;;;;6.17;3.67;;;;;;;16.84;86.21;97162.56;5060194;28;20206;-61
2021/07/18 03:25:59;;;;;;;6.73;3.60;;;;;;;16.83;85.73;97171.59;5066918;28;20642;-62
2021/07/18 03:28:24;;;;;;;4.90;3.97;;;;;;;16.96;85.25;97177.19;5060393;28;20185;-60
2021/07/18 03:30:50;;;;;;;5.77;4.03;;;;;;;16.94;85.54;97176.66;5058097;28;20181;-61
2021/07/18 03:33:16;;;;;;;4.50;4.10;;;;;;;16.84;86.07;97175.81;5070580;28;20212;-60
2021/07/18 03:35:41;;;;;;;6.17;4.10;;;;;;;16.67;87.45;97169.88;5062819;28;20681;-65
2021/07/18 03:38:06;;;;;;;4.97;4.17;;;;;;;16.52;88.49;97173.19;5054752;28;20240;-60
2021/07/18 03:40:32;;;;;;;8.43;4.17;;;;;;;16.52;88.88;97170.56;5078814;28;20323;-60
2021/07/18 03:42:57;;;;;;;5.43;4.53;;;;;;;16.54;89.00;97168.47;5091043;28;20260;-61
2021/07/18 03:45:23;;;;;;;6.87;4.90;;;;;;;16.68;88.31;97174.13;5092374;28;20193;-60
2021/07/18 03:47:49;;;;;;;4.27;3.80;;;;;;;16.76;88.07;97178.94;5091222;28;20219;-60
2021/07/18 03:50:15;;;;;;;6.87;5.43;;;;;;;16.67;88.40;97177.81;5091601;28;20705;-60
2021/07/18 03:52:41;;;;;;;5.97;4.07;;;;;;;16.86;87.67;97179.81;5091517;28;20259;-66
2021/07/18 03:55:07;;;;;;;5.97;4.20;;;;;;;16.67;88.52;97177.81;5091822;28;20176;-62
2021/07/18 03:57:32;;;;;;;6.30;4.40;;;;;;;16.59;88.77;97173.81;5091459;28;20196;-63
2021/07/18 03:59:57;;;;;;;6.93;4.43;;;;;;;16.63;88.63;97169.59;5090853;28;20212;-63
2021/07/18 04:02:23;;;;;;;6.47;4.00;;;;;;;16.74;87.51;97176.56;5091517;28;20600;-62
2021/07/18 04:04:48;;;;;;;5.97;4.13;;;;;;;16.79;87.08;97170.47;5090698;28;20217;-62
2021/07/18 04:07:14;;;;;;;5.07;3.90;;;;;;;16.62;86.77;97174.09;5091206;28;20219;-62
2021/07/18 04:09:39;;;;;;;6.20;3.73;;;;;;;16.82;85.78;97173.44;5091163;28;20192;-67
2021/07/18 04:12:05;;;;;;;5.60;3.30;;;;;;;17.11;83.32;97176.47;5089508;28;20181;-62
2021/07/18 04:14:33;;;;;;;4.73;3.33;;;;;;;17.35;81.74;97177.63;5091551;28;20291;-62
2021/07/18 04:16:58;;;;;;;4.57;3.10;;;;;;;17.42;79.11;97185.34;5090726;28;20202;-63
2021/07/18 04:19:23;;;;;;;4.47;3.00;;;;;;;17.37;79.39;97188.00;5089893;28;20274;-63
2021/07/18 04:21:49;;;;;;;3.90;2.83;;;;;;;17.44;79.11;97183.25;5091167;28;20534;-60
2021/07/18 04:24:14;;;;;;;3.70;2.83;;;;;;;17.55;78.30;97189.38;5090963;28;20181;-61
2021/07/18 04:26:40;;;;;;;3.97;2.90;;;;;;;17.52;78.42;97188.03;5091342;28;20195;-66
2021/07/18 04:29:05;;;;;;;4.20;2.97;;;;;;;17.59;77.08;97188.59;5089145;28;20192;-60
2021/07/18 04:31:31;;;;;;;5.03;2.80;;;;;;;17.68;77.01;97187.03;5089275;28;20525;-60
2021/07/18 04:33:56;;;;;;;6.87;2.83;;;;;;;17.79;76.11;97190.50;5086244;28;20276;-60
2021/07/18 04:36:21;;;;;;;2.97;2.73;;;;;;;17.88;74.92;97182.84;5091276;28;20191;-60
2021/07/18 04:38:47;;;;;;;4.47;3.07;;;;;;;17.99;74.58;97192.41;5090205;28;20208;-60
2021/07/18 04:41:12;;;;;;;4.67;2.80;;;;;;;17.92;74.64;97189.22;5102415;28;20305;-61
2021/07/18 04:43:38;;;;;;;4.73;2.80;;;;;;;18.17;73.11;97191.88;5104985;28;20271;-60
2021/07/18 04:46:04;;;;;;;3.50;2.57;;;;;;;17.93;73.98;97191.63;5092218;28;20362;-61
2021/07/18 04:48:30;;;;;;;3.53;2.40;;;;;;;17.85;73.65;97192.91;5107549;28;20176;-60
2021/07/18 04:50:56;;;;;;;2.47;2.27;;;;;;;17.95;73.24;97196.63;5095006;28;20589;-60
2021/07/18 04:53:21;;;;;;;5.73;2.40;;;;;;;18.12;72.82;97195.34;5107195;28;20180;-61
2021/07/18 04:55:46;;;;;;;3.20;2.90;;;;;;;18.05;72.74;97194.00;5101771;28;20553;-63
2021/07/18 04:58:12;;;;;;;3.30;2.47;;;;;;;18.25;71.77;97201.97;5094986;28;20275;-60
2021/07/18 05:00:37;;;;;;;2.40;2.20;;;;;;;18.43;71.15;97211.28;5106327;28;20258;-60
2021/07/18 05:03:03;;;;;;;2.50;2.30;;;;;;;18.53;70.76;97201.44;5103915;28;20190;-60
2021/07/18 05:05:29;;;;;;;3.38;2.38;;;;;;;18.90;69.26;97205.66;5104828;28;20268;-60
2021/07/18 05:07:56;;;;;;;6.10;2.47;;;;;;;19.33;67.85;97198.91;5105990;28;20268;-60
2021/07/18 05:10:26;;;;;;;3.22;2.47;;;;;;;19.62;66.81;97207.03;5095275;28;20189;-60
2021/07/18 05:12:54;;;;;;;2.63;2.42;;;;;;;19.46;66.00;97208.97;5106295;28;20183;-60
2021/07/18 05:15:21;;;;;;;2.20;2.05;;;;;;;19.50;66.50;97210.81;5094166;28;20189;-60
2021/07/18 05:17:47;;;;;;;3.47;2.33;;;;;;;19.74;66.05;97208.31;5103543;28;20188;-60
2021/07/18 05:20:14;;;;;;;6.55;2.60;;;;;;;20.01;65.09;97212.41;5101118;28;20217;-60
2021/07/18 05:22:39;;;;;;;3.38;2.65;;;;;;;20.07;65.03;97203.31;5097391;28;20238;-61
2021/07/18 05:25:06;;;;;;;3.42;2.58;;;;;;;19.88;64.72;97203.97;5106660;28;20180;-61
2021/07/18 05:27:32;;;;;;;4.15;2.83;;;;;;;19.55;66.23;97209.22;5095325;28;20188;-60
2021/07/18 05:29:57;;;;;;;2.50;2.30;;;;;;;19.45;66.63;97204.72;5101348;28;20219;-61
2021/07/18 05:32:23;;;;;;;3.97;2.30;;;;;;;19.36;66.78;97207.13;5101187;28;20219;-61
2021/07/18 05:34:49;;;;;;;2.50;2.30;;;;;;;19.72;65.60;97207.00;5110751;28;20184;-60
2021/07/18 05:37:14;;;;;;;2.55;2.35;;;;;;;19.73;64.89;97206.72;5107476;28;20188;-60
2021/07/18 05:39:40;;;;;;;2.22;2.13;;;;;;;19.86;64.51;97208.78;5097595;28;20239;-60
2021/07/18 05:42:06;;;;;;;2.70;2.42;;;;;;;19.75;64.81;97199.25;5110867;28;20233;-60
2021/07/18 05:44:33;;;;;;;2.20;2.10;;;;;;;19.87;64.24;97204.25;5111468;28;20693;-60
2021/07/18 05:46:58;;;;;;;8.05;2.67;;;;;;;19.93;63.72;97198.63;5110249;28;20187;-61
2021/07/18 05:49:24;;;;;;;2.75;2.55;;;;;;;20.09;64.05;97201.97;5094599;28;20187;-60
2021/07/18 05:51:50;;;;;;;2.60;2.40;;;;;;;20.43;63.32;97209.22;5106512;28;20605;-60
2021/07/18 05:54:15;;;;;;;2.53;2.10;;;;;;;20.67;61.91;97212.75;5102932;28;20180;-61
2021/07/18 05:56:41;;;;;;;4.63;2.13;;;;;;;20.41;62.15;97214.81;5108467;28;20271;-61
2021/07/18 05:59:06;;;;;;;1.92;1.80;;;;;;;20.53;61.41;97215.25;5104699;28;20720;-61
2021/07/18 06:01:31;;;;;;;3.90;2.08;;;;;;;20.01;62.98;97212.41;5095775;28;20188;-60
2021/07/18 06:03:57;;;;;;;2.15;1.80;;;;;;;19.86;63.71;97224.75;5107338;28;20195;-61
2021/07/18 06:06:22;;;;;;;7.60;2.20;;;;;;;19.75;63.91;97222.41;5105399;28;20184;-60
2021/07/18 06:08:48;;;;;;;1.80;1.70;;;;;;;19.51;63.62;97219.59;5109372;28;20662;-62
2021/07/18 06:11:13;;;;;;;4.40;2.25;;;;;;;19.12;65.86;97224.75;5095466;28;20186;-60
2021/07/18 06:13:39;;;;;;;2.00;1.90;;;;;;;19.60;65.04;97219.81;5095476;28;20187;-63
2021/07/18 06:16:05;;;;;;;2.45;2.25;;;;;;;19.75;63.49;97227.72;5097350;28;20172;-60
2021/07/18 06:18:30;;;;;;;2.88;1.92;;;;;;;19.90;62.97;97225.78;5107365;28;20194;-60
2021/07/18 06:20:56;;;;;;;6.32;2.30;;;;;;;19.99;62.77;97233.97;5095021;28;20183;-61
2021/07/18 06:23:21;;;;;;;2.15;1.80;;;;;;;19.82;62.98;97225.56;5103816;28;20579;-62
2021/07/18 06:25:47;;;;;;;3.28;1.88;;;;;;;19.66;63.62;97227.50;5107845;28;20180;-65
2021/07/18 06:28:12;;;;;;;2.58;2.38;;;;;;;19.26;65.44;97228.44;5095159;28;20236;-61
2021/07/18 06:30:38;;;;;;;2.97;2.67;;;;;;;19.40;64.72;97241.94;5100407;28;20211;-61
2021/07/18 06:33:03;;;;;;;2.90;2.50;;;;;;;19.21;66.08;97233.78;5094408;28;20214;-61
2021/07/18 06:35:28;;;;;;;2.10;1.90;;;;;;;19.38;65.14;97236.09;5077183;28;20211;-61
2021/07/18 06:37:54;;;;;;;2.40;2.20;;;;;;;19.45;65.39;97236.63;5091014;28;20212;-61
2021/07/18 06:40:19;;;;;;;2.58;2.13;;;;;;;19.67;64.63;97230.97;5095983;28;20232;-61
2021/07/18 06:42:45;;;;;;;5.47;1.77;;;;;;;20.09;63.19;97227.78;5096157;28;20207;-66
2021/07/18 06:45:11;;;;;;;2.22;1.70;;;;;;;19.97;63.80;97233.44;5097022;28;20185;-61
2021/07/18 06:47:37;;;;;;;3.28;2.05;;;;;;;19.74;64.69;97237.56;5097035;28;20211;-61
2021/07/18 06:50:02;;;;;;;1.60;1.50;;;;;;;19.84;62.87;97226.88;5090844;28;20676;-61
2021/07/18 06:52:27;;;;;;;1.83;1.70;;;;;;;19.63;64.25;97230.69;5096989;28;20208;-61
2021/07/18 06:54:53;;;;;;;2.08;1.90;;;;;;;20.01;63.21;97236.34;5097107;28;20208;-61
2021/07/18 06:57:19;;;;;;;1.70;1.60;;;;;;;19.70;63.23;97233.88;5104496;28;20187;-64
2021/07/18 06:59:46;;;;;;;1.67;1.58;;;;;;;19.63;64.17;97236.03;5091678;28;20208;-66
2021/07/18 07:02:12;;;;;;;2.10;1.73;;;;;;;19.48;63.73;97233.44;5106750;28;20191;-61
2021/07/18 07:04:37;;;;;;;1.85;1.75;;;;;;;19.63;63.95;97238.69;5099433;28;20557;-60
2021/07/18 07:07:03;;;;;;;2.17;2.00;;;;;;;19.72;63.42;97237.06;5109071;28;20530;-60
2021/07/18 07:09:29;;;;;;;1.80;1.70;;;;;;;20.05;62.44;97234.75;5096914;28;20196;-60
2021/07/18 07:11:54;;;;;;;2.03;1.83;;;;;;;20.05;62.67;97238.22;5103435;28;20197;-60
2021/07/18 07:14:19;;;;;;;2.50;1.90;;;;;;;20.18;62.25;97242.91;5097583;28;20196;-61
2021/07/18 07:16:45;;;;;;;6.05;1.90;;;;;;;19.93;63.00;97245.72;5095793;28;20188;-60
2021/07/18 07:19:10;;;;;;;3.10;1.80;;;;;;;20.27;62.57;97249.25;5094728;28;20201;-60
2021/07/18 07:21:36;;;;;;;4.03;1.83;;;;;;;19.93;62.27;97245.72;5100827;28;20202;-60
2021/07/18 07:24:03;;;;;;;2.03;1.85;;;;;;;19.90;63.29;97248.91;5095243;28;20373;-60
2021/07/18 07:26:28;;;;;;;2.97;2.20;;;;;;;19.90;63.33;97249.72;5087113;28;20195;-60
2021/07/18 07:28:54;;;;;;;2.72;2.03;;;;;;;19.89;64.17;97247.34;5111453;28;20188;-62
2021/07/18 07:31:19;;;;;;;3.28;1.77;;;;;;;19.96;64.69;97255.00;5101737;28;20249;-59
2021/07/18 07:33:45;;;;;;;4.43;1.90;;;;;;;19.86;64.48;97254.00;5097408;28;20275;-60
2021/07/18 07:36:10;;;;;;;4.05;1.88;;;;;;;19.73;64.33;97243.94;5091055;28;20638;-64
2021/07/18 07:38:35;;;;;;;2.17;1.90;;;;;;;19.83;64.61;97243.91;5100924;28;20187;-60
2021/07/18 07:41:01;;;;;;;3.20;2.13;;;;;;;20.30;63.52;97235.38;5094928;28;20225;-60
2021/07/18 07:43:26;;;;;;;2.70;2.00;;;;;;;20.61;62.16;97243.16;5110834;28;20238;-60
2021/07/18 07:45:52;;;;;;;2.40;1.73;;;;;;;20.39;63.68;97240.13;5097119;28;20253;-60
2021/07/18 07:48:18;;;;;;;2.00;1.90;;;;;;;20.23;63.57;97247.38;5101028;28;20258;-60
2021/07/18 07:50:44;;;;;;;3.95;2.10;;;;;;;19.90;63.95;97255.03;5090542;28;20637;-61
2021/07/18 07:53:09;;;;;;;3.70;2.22;;;;;;;20.09;63.61;97244.56;5101188;28;20345;-61
2021/07/18 07:55:35;;;;;;;6.05;2.35;;;;;;;20.30;63.38;97245.22;5111050;28;20198;-60
2021/07/18 07:58:01;;;;;;;5.20;3.40;;;;;;;20.07;64.61;97245.91;5102090;28;20655;-60
2021/07/18 08:00:26;;;;;;;3.67;2.15;;;;;;;20.40;63.32;97242.50;5079148;28;20203;-60
2021/07/18 08:02:52;;;;;;;2.17;1.98;;;;;;;20.29;64.50;97247.06;5104223;28;20633;-65
2021/07/18 08:05:19;;;;;;;2.28;2.00;;;;;;;20.37;62.77;97243.06;5111372;28;20640;-59
2021/07/18 08:07:45;;;;;;;3.30;2.00;;;;;;;20.47;62.92;97248.31;5105247;28;20208;-59
2021/07/18 08:10:14;;;;;;;3.35;2.30;;;;;;;20.32;63.48;97240.44;5107389;28;20651;-59
2021/07/18 08:12:40;;;;;;;2.40;2.20;;;;;;;20.23;64.29;97232.22;5104800;28;20207;-59
2021/07/18 08:15:07;;;;;;;2.65;2.33;;;;;;;20.26;65.37;97241.53;5101873;28;20196;-59
2021/07/18 08:17:33;;;;;;;2.47;2.25;;;;;;;20.29;64.55;97241.75;5110895;28;20187;-59
2021/07/18 08:20:00;;;;;;;2.45;2.20;;;;;;;20.78;63.13;97230.22;5109403;28;20253;-60
2021/07/18 08:22:25;;;;;;;3.20;2.30;;;;;;;20.91;62.32;97234.88;5108993;28;21903;-59
2021/07/18 08:24:51;;;;;;;5.18;2.67;;;;;;;21.08;62.09;97237.09;5109689;28;20267;-64
2021/07/18 08:27:16;;;;;;;2.47;2.28;;;;;;;21.40;61.08;97239.97;5102540;28;20191;-60
2021/07/18 08:29:42;;;;;;;2.45;2.20;;;;;;;21.74;60.53;97231.03;5109040;28;20680;-59
2021/07/18 08:32:07;;;;;;;3.90;2.22;;;;;;;20.72;62.89;97247.31;5108795;28;20188;-60
2021/07/18 08:34:32;;;;;;;2.75;2.20;;;;;;;20.91;62.67;97236.75;5092223;28;20680;-61
2021/07/18 08:36:58;;;;;;;4.80;2.67;;;;;;;21.00;62.82;97227.06;5092166;28;20234;-60
2021/07/18 08:39:24;;;;;;;3.78;2.53;;;;;;;21.41;62.03;97225.56;5093361;28;20782;-59
2021/07/18 08:41:53;;;;;;;2.00;1.90;;;;;;;21.18;62.44;97231.69;5092949;28;20177;-62
2021/07/18 08:44:18;;;;;;;4.47;2.30;;;;;;;20.97;63.50;97227.63;5102339;28;20187;-60
2021/07/18 08:46:44;;;;;;;5.55;2.70;;;;;;;20.97;62.69;97232.97;5097254;28;20272;-60
2021/07/18 08:49:10;;;;;;;2.55;2.10;;;;;;;20.75;64.01;97242.22;5106537;28;20190;-60
2021/07/18 08:51:37;;;;;;;2.95;2.42;;;;;;;20.90;64.28;97229.84;5107695;28;20624;-58
2021/07/18 08:54:04;;;;;;;2.55;2.35;;;;;;;21.07;63.43;97228.31;5101999;28;20238;-58
2021/07/18 08:56:33;;;;;;;7.63;2.58;;;;;;;21.03;63.61;97227.28;5093073;28;20189;-58
2021/07/18 08:59:10;;;;;;;6.03;2.75;;;;;;;21.08;63.76;97229.09;5101784;28;20203;-61
2021/07/18 09:01:42;;;;;;;4.53;2.50;;;;;;;21.19;63.31;97229.81;5063206;28;20262;-58
2021/07/18 09:04:12;;;;;;;3.10;2.40;;;;;;;21.52;61.97;97228.91;5100209;28;20677;-58
2021/07/18 09:06:46;;;;;;;2.65;2.22;;;;;;;21.56;62.25;97221.94;5092007;28;20177;-58
2021/07/18 09:09:17;;;;;;;2.63;2.30;;;;;;;21.87;61.80;97223.13;5089579;28;20189;-59
2021/07/18 09:11:52;;;;;;;2.38;2.17;;;;;;;22.42;60.95;97228.75;5096211;28;20185;-58
2021/07/18 09:14:18;;;;;;;2.58;2.38;;;;;;;22.25;60.79;97223.13;5105191;28;20171;-60
2021/07/18 09:16:43;;;;;;;2.67;2.15;;;;;;;22.15;61.13;97228.63;5102523;28;20253;-58
2021/07/18 09:19:21;;;;;;;3.15;2.03;;;;;;;22.05;62.53;97213.56;5097654;28;20228;-58
2021/07/18 09:22:07;;;;;;;4.43;2.40;;;;;;;21.78;61.21;97213.38;5108815;28;20575;-58
2021/07/18 09:24:40;;;;;;;4.03;2.70;;;;;;;21.58;62.34;97223.22;5107723;28;20187;-58
2021/07/18 09:27:14;;;;;;;3.53;2.72;;;;;;;21.27;63.21;97219.34;5112144;28;20180;-58
2021/07/18 09:29:54;;;;;;;2.83;2.33;;;;;;;21.15;63.60;97221.59;5095091;28;20531;-58
2021/07/18 09:32:23;;;;;;;2.90;2.60;;;;;;;20.97;64.13;97212.44;5094382;28;20179;-59
2021/07/18 09:34:50;;;;;;;3.13;2.60;;;;;;;21.60;62.99;97206.16;5109491;28;20176;-59
2021/07/18 09:37:20;;;;;;;3.70;2.38;;;;;;;22.06;62.00;97207.16;5097017;28;20200;-59
2021/07/18 09:39:53;;;;;;;9.10;2.30;;;;;;;22.37;61.38;97212.81;5096295;28;20236;-59
2021/07/18 09:42:27;;;;;;;2.30;1.88;;;;;;;22.06;61.51;97203.69;5113921;28;20233;-59
2021/07/18 09:44:53;;;;;;;3.28;2.10;;;;;;;22.01;61.86;97196.53;5098609;28;20224;-63
2021/07/18 09:47:18;;;;;;;5.50;2.45;;;;;;;22.37;62.32;97199.44;5110592;28;20189;-59
2021/07/18 09:49:43;;;;;;;3.25;2.67;;;;;;;22.53;61.82;97198.09;5092974;28;20589;-58
2021/07/18 09:52:17;;;;;;;3.67;2.10;;;;;;;22.42;61.73;97204.69;5102784;28;20180;-64
2021/07/18 09:54:43;;;;;;;2.00;1.90;;;;;;;22.44;61.52;97202.53;5099839;28;20634;-64
2021/07/18 09:57:10;;;;;;;3.25;2.30;;;;;;;22.29;61.39;97198.22;5105733;28;20695;-64
2021/07/18 09:59:37;;;;;;;4.07;2.47;;;;;;;22.24;61.53;97202.84;5109233;28;20776;-64
2021/07/18 10:02:04;;;;;;;2.47;2.20;;;;;;;22.20;61.55;97189.28;5094359;28;20196;-64
2021/07/18 10:04:30;;;;;;;4.90;2.28;;;;;;;22.42;61.45;97186.00;5094520;28;20181;-64
2021/07/18 10:07:08;;;;;;;2.33;2.15;;;;;;;22.06;62.48;97193.00;5092218;28;20233;-68
2021/07/18 10:09:34;;;;;;;3.97;2.17;;;;;;;22.30;62.69;97181.13;5098312;28;20191;-64
2021/07/18 10:12:00;;;;;;;2.25;1.98;;;;;;;22.22;62.63;97183.66;5105349;28;20184;-65
2021/07/18 10:14:26;;;;;;;3.30;2.25;;;;;;;22.00;62.36;97181.59;5100072;28;20235;-68
2021/07/18 10:16:53;;;;;;;2.40;2.17;;;;;;;22.29;62.54;97182.19;5109411;28;20208;-70
2021/07/18 10:19:20;;;;;;;2.00;1.90;;;;;;;22.24;61.89;97181.47;5094642;28;20294;-65
2021/07/18 10:21:46;;;;;;;2.97;2.10;;;;;;;22.27;62.11;97189.72;5105376;28;20640;-65
2021/07/18 10:24:13;;;;;;;3.05;2.10;;;;;;;22.00;62.49;97181.59;5104047;28;20212;-65
2021/07/18 10:26:39;;;;;;;2.10;2.00;;;;;;;21.97;62.89;97190.16;5106948;28;20191;-64
2021/07/18 10:29:06;;;;;;;2.70;2.10;;;;;;;22.16;61.08;97185.63;5089502;28;20180;-66
2021/07/18 10:31:52;;;;;;;7.10;2.40;;;;;;;22.20;63.05;97191.97;5110170;28;20184;-66
2021/07/18 10:34:19;;;;;;;5.07;2.10;;;;;;;21.87;62.07;97190.28;5103012;28;20262;-65
2021/07/18 10:36:49;;;;;;;2.10;1.73;;;;;;;21.85;63.19;97184.44;5091860;28;20697;-65
2021/07/18 10:39:31;;;;;;;4.47;2.00;;;;;;;21.95;62.73;97181.69;5091836;28;20220;-65
2021/07/18 10:42:02;;;;;;;2.88;2.47;;;;;;;22.08;61.96;97174.78;5104593;28;20188;-66
2021/07/18 10:44:48;;;;;;;2.75;2.22;;;;;;;22.22;61.70;97179.13;5104482;28;20644;-65
2021/07/18 10:47:15;;;;;;;2.53;2.28;;;;;;;22.12;61.18;97181.16;5095300;28;20842;-65
2021/07/18 10:49:51;;;;;;;2.13;1.92;;;;;;;22.09;62.30;97174.50;5109275;28;20189;-68
2021/07/18 10:52:18;;;;;;;3.55;2.08;;;;;;;22.44;60.98;97178.50;5112376;28;20687;-65
2021/07/18 10:54:44;;;;;;;2.38;2.10;;;;;;;22.66;60.01;97162.63;5095253;28;20209;-65
2021/07/18 10:57:29;;;;;;;3.40;2.25;;;;;;;22.39;59.33;97175.91;5103197;28;20180;-65
2021/07/18 10:59:56;;;;;;;2.78;2.20;;;;;;;22.43;61.74;97171.56;5112843;28;20199;-71
2021/07/18 11:02:33;;;;;;;3.72;2.03;;;;;;;22.75;60.39;97178.78;5101611;28;20181;-65
2021/07/18 11:05:01;;;;;;;2.33;2.00;;;;;;;22.71;60.36;97175.09;5105791;28;20267;-69
2021/07/18 11:07:27;;;;;;;8.40;2.60;;;;;;;22.52;60.86;97175.13;5094034;28;20200;-65
2021/07/18 11:09:57;;;;;;;2.30;2.10;;;;;;;22.63;61.20;97160.50;5103637;28;20192;-71
2021/07/18 11:12:34;;;;;;;3.15;2.10;;;;;;;23.11;59.32;97168.22;5112469;28;20640;-65
2021/07/18 11:15:15;;;;;;;2.60;2.20;;;;;;;23.25;59.36;97168.22;5100903;28;20184;-68
2021/07/18 11:18:11;;;;;;;2.17;2.00;;;;;;;23.37;59.22;97161.28;5083791;28;20215;-65
2021/07/18 11:20:42;;;;;;;2.03;1.80;;;;;;;23.16;59.44;97157.44;5094445;28;20204;-65
2021/07/18 11:23:09;;;;;;;2.10;1.83;;;;;;;23.18;58.24;97163.28;5107732;28;20213;-65
2021/07/18 11:25:42;;;;;;;2.97;2.38;;;;;;;23.15;59.12;97167.34;5090277;28;20184;-65
2021/07/18 11:28:33;;;;;;;3.30;1.90;;;;;;;23.00;59.80;97164.97;5107362;28;20184;-65
2021/07/18 11:31:14;;;;;;;4.05;2.13;;;;;;;23.17;59.09;97161.69;5101385;28;20179;-68